createdAt,value
2022-12-19T00:00:43.737Z,99518.63
2022-12-19T00:03:25.983Z,99515.61
2022-12-19T00:05:54.417Z,99516.15
2022-12-19T00:08:22.578Z,99513.45
2022-12-19T00:11:01.825Z,99517.83
2022-12-19T00:13:33.639Z,99521.81
2022-12-19T00:16:13.640Z,99520.98
2022-12-19T00:18:43.888Z,99523.05
2022-12-19T00:21:15.058Z,99522.67
2022-12-19T00:23:43.956Z,99519.61
2022-12-19T00:26:24.636Z,99517.33
2022-12-19T00:28:55.833Z,99515.80
2022-12-19T00:31:28.171Z,99516.98
2022-12-19T00:33:58.152Z,99515.17
2022-12-19T00:36:29.053Z,99514.95
2022-12-19T00:38:59.390Z,99516.09
2022-12-19T00:41:32.592Z,99526.69
2022-12-19T00:44:07.022Z,99523.83
2022-12-19T00:46:36.545Z,99522.95
2022-12-19T00:49:05.523Z,99522.19
2022-12-19T00:51:35.772Z,99519.86
2022-12-19T00:54:06.762Z,99521.89
2022-12-19T00:56:37.465Z,99522.34
2022-12-19T00:59:08.973Z,99524.13
2022-12-19T01:01:41.339Z,99521.11
2022-12-19T01:04:30.811Z,99521.27
2022-12-19T01:07:02.686Z,99525.09
2022-12-19T01:09:36.201Z,99526.61
2022-12-19T01:12:25.149Z,99525.76
2022-12-19T01:14:58.798Z,99528.02
2022-12-19T01:17:43.973Z,99526.58
2022-12-19T01:20:23.444Z,99520.48
2022-12-19T01:23:00.424Z,99512.09
2022-12-19T01:25:29.402Z,99514.86
2022-12-19T01:27:57.568Z,99514.52
2022-12-19T01:30:27.738Z,99516.20
2022-12-19T01:32:59.487Z,99513.77
2022-12-19T01:35:28.722Z,99512.98
2022-12-19T01:38:07.707Z,99515.55
2022-12-19T01:40:37.646Z,99515.74
2022-12-19T01:43:07.163Z,99513.06
2022-12-19T01:45:43.837Z,99511.52
2022-12-19T01:48:13.752Z,99511.16
2022-12-19T01:51:02.715Z,99511.15
2022-12-19T01:53:48.193Z,99511.22
2022-12-19T01:56:27.549Z,99512.19
2022-12-19T01:59:05.759Z,99511.45
2022-12-19T02:01:51.209Z,99508.27
2022-12-19T02:04:27.105Z,99510.85
2022-12-19T02:07:15.222Z,99511.05
2022-12-19T02:09:56.537Z,99509.20
2022-12-19T02:12:33.669Z,99505.05
2022-12-19T02:15:03.629Z,99501.20
2022-12-19T02:17:39.170Z,99498.60
2022-12-19T02:20:19.716Z,99496.42
2022-12-19T02:22:57.201Z,99494.73
2022-12-19T02:26:04.989Z,99498.95
2022-12-19T02:29:12.350Z,99497.55
2022-12-19T02:31:57.594Z,99499.16
2022-12-19T02:34:40.048Z,99501.39
2022-12-19T02:37:21.266Z,99506.05
2022-12-19T02:39:59.170Z,99508.44
2022-12-19T02:42:35.848Z,99509.02
2022-12-19T02:45:07.986Z,99512.73
2022-12-19T02:47:38.638Z,99513.26
2022-12-19T02:50:08.961Z,99515.46
2022-12-19T02:52:37.124Z,99514.14
2022-12-19T02:55:13.691Z,99513.56
2022-12-19T02:58:10.764Z,99513.72
2022-12-19T03:01:04.734Z,99513.94
2022-12-19T03:04:11.615Z,99512.12
2022-12-19T03:06:56.634Z,99516.66
2022-12-19T03:09:53.373Z,99519.08
2022-12-19T03:12:40.123Z,99522.55
2022-12-19T03:15:12.710Z,99526.29
2022-12-19T03:17:41.199Z,99529.65
2022-12-19T03:20:20.478Z,99528.91
2022-12-19T03:22:48.602Z,99539.02
2022-12-19T03:25:17.635Z,99542.73
2022-12-19T03:27:48.948Z,99541.87
2022-12-19T03:30:17.199Z,99544.96
2022-12-19T03:32:48.075Z,99541.61
2022-12-19T03:35:22.671Z,99537.34
2022-12-19T03:37:53.948Z,99539.23
2022-12-19T03:40:24.488Z,99540.96
2022-12-19T03:43:09.056Z,99546.16
2022-12-19T03:45:44.022Z,99550.29
2022-12-19T03:48:20.247Z,99552.52
2022-12-19T03:51:08.380Z,99549.33
2022-12-19T03:53:39.482Z,99546.89
2022-12-19T03:56:21.538Z,99548.20
2022-12-19T03:59:00.882Z,99549.10
2022-12-19T04:01:32.381Z,99550.77
2022-12-19T04:04:02.136Z,99559.23
2022-12-19T04:06:33.178Z,99556.94
2022-12-19T04:09:02.398Z,99554.47
2022-12-19T04:11:46.483Z,99551.78
2022-12-19T04:14:23.558Z,99551.27
2022-12-19T04:17:05.717Z,99551.38
2022-12-19T04:19:44.956Z,99552.16
2022-12-19T04:22:36.198Z,99548.27
2022-12-19T04:25:07.998Z,99548.46
2022-12-19T04:27:39.076Z,99550.00
2022-12-19T04:30:07.990Z,99549.58
2022-12-19T04:32:37.788Z,99552.33
2022-12-19T04:35:06.329Z,99552.05
2022-12-19T04:37:34.600Z,99551.85
2022-12-19T04:40:03.210Z,99554.62
2022-12-19T04:42:31.563Z,99548.17
2022-12-19T04:44:59.731Z,99551.48
2022-12-19T04:47:27.750Z,99549.02
2022-12-19T04:49:55.708Z,99553.23
2022-12-19T04:52:23.874Z,99559.92
2022-12-19T04:54:52.435Z,99563.54
2022-12-19T04:57:21.015Z,99566.54
2022-12-19T04:59:49.980Z,99572.05
2022-12-19T05:02:18.380Z,99571.35
2022-12-19T05:04:46.773Z,99575.27
2022-12-19T05:07:15.359Z,99573.03
2022-12-19T05:09:46.498Z,99575.43
2022-12-19T05:12:14.874Z,99580.80
2022-12-19T05:14:43.356Z,99584.17
2022-12-19T05:17:11.465Z,99587.77
2022-12-19T05:19:39.542Z,99593.72
2022-12-19T05:22:07.615Z,99597.63
2022-12-19T05:24:35.535Z,99601.69
2022-12-19T05:27:03.862Z,99603.04
2022-12-19T05:29:32.139Z,99600.25
2022-12-19T05:32:00.274Z,99603.88
2022-12-19T05:34:28.599Z,99606.04
2022-12-19T05:36:56.681Z,99602.02
2022-12-19T05:39:25.035Z,99599.14
2022-12-19T05:41:53.051Z,99593.06
2022-12-19T05:44:21.597Z,99586.65
2022-12-19T05:46:49.790Z,99585.35
2022-12-19T05:49:17.865Z,99590.05
2022-12-19T05:51:49.098Z,99591.20
2022-12-19T05:54:17.346Z,99585.42
2022-12-19T05:56:45.444Z,99586.00
2022-12-19T05:59:13.499Z,99584.16
2022-12-19T06:01:42.687Z,99581.82
2022-12-19T06:04:10.887Z,99582.17
2022-12-19T06:06:39.057Z,99587.48
2022-12-19T06:09:07.196Z,99589.34
2022-12-19T06:11:35.896Z,99589.67
2022-12-19T06:14:04.050Z,99592.65
2022-12-19T06:16:35.468Z,99598.14
2022-12-19T06:19:03.790Z,99597.48
2022-12-19T06:21:31.972Z,99597.09
2022-12-19T06:24:00.129Z,99598.59
2022-12-19T06:26:28.152Z,99595.77
2022-12-19T06:28:56.279Z,99596.59
2022-12-19T06:31:25.664Z,99598.50
2022-12-19T06:33:55.494Z,99594.22
2022-12-19T06:36:29.070Z,99595.45
2022-12-19T06:38:58.296Z,99601.36
2022-12-19T06:41:45.277Z,99605.33
2022-12-19T06:44:15.402Z,99607.96
2022-12-19T06:46:44.536Z,99607.64
2022-12-19T06:49:12.486Z,99610.66
2022-12-19T06:51:40.900Z,99611.16
2022-12-19T06:54:11.192Z,99609.58
2022-12-19T06:56:41.018Z,99609.41
2022-12-19T06:59:12.880Z,99607.95
2022-12-19T07:02:00.012Z,99608.11
2022-12-19T07:04:40.834Z,99607.60
2022-12-19T07:07:08.827Z,99615.09
2022-12-19T07:09:37.027Z,99612.02
2022-12-19T07:12:08.148Z,99608.70
2022-12-19T07:14:36.228Z,99616.55
2022-12-19T07:17:06.321Z,99612.87
2022-12-19T07:19:35.742Z,99615.85
2022-12-19T07:22:06.089Z,99617.70
2022-12-19T07:24:35.695Z,99610.66
2022-12-19T07:27:04.469Z,99611.30
2022-12-19T07:29:35.920Z,99613.85
2022-12-19T07:32:03.991Z,99606.38
2022-12-19T07:34:32.215Z,99603.84
2022-12-19T07:37:00.290Z,99606.40
2022-12-19T07:39:28.307Z,99606.59
2022-12-19T07:41:56.267Z,99604.77
2022-12-19T07:44:31.008Z,99602.13
2022-12-19T07:46:59.075Z,99608.82
2022-12-19T07:49:27.248Z,99609.55
2022-12-19T07:51:55.728Z,99615.11
2022-12-19T07:54:23.649Z,99614.56
2022-12-19T07:56:52.603Z,99614.81
2022-12-19T07:59:24.432Z,99612.83
2022-12-19T08:01:55.879Z,99612.88
2022-12-19T08:04:24.477Z,99608.66
2022-12-19T08:06:52.470Z,99608.06
2022-12-19T08:09:20.533Z,99606.86
2022-12-19T08:11:48.604Z,99610.70
2022-12-19T08:14:16.674Z,99614.65
2022-12-19T08:17:18.884Z,99615.52
2022-12-19T08:19:32.680Z,99617.16
2022-12-19T08:22:01.716Z,99622.39
2022-12-19T08:24:30.957Z,99623.36
2022-12-19T08:26:59.172Z,99622.02
2022-12-19T08:29:27.313Z,99620.94
2022-12-19T08:31:55.499Z,99625.84
2022-12-19T08:34:23.875Z,99629.11
2022-12-19T08:36:51.848Z,99631.81
2022-12-19T08:39:19.922Z,99633.34
2022-12-19T08:41:48.084Z,99638.55
2022-12-19T08:44:16.573Z,99638.14
2022-12-19T08:46:49.894Z,99633.15
2022-12-19T08:49:19.426Z,99633.25
2022-12-19T08:51:47.549Z,99627.14
2022-12-19T08:54:15.839Z,99621.51
2022-12-19T08:56:46.794Z,99619.73
2022-12-19T08:59:25.016Z,99617.65
2022-12-19T09:02:01.082Z,99616.10
2022-12-19T09:06:03.783Z,99618.98
2022-12-19T09:07:18.008Z,99606.52
2022-12-19T09:09:46.219Z,99607.73
2022-12-19T09:12:16.286Z,99608.80
2022-12-19T09:14:44.506Z,99606.17
2022-12-19T09:17:13.324Z,99604.26
2022-12-19T09:19:45.905Z,99604.16
2022-12-19T09:22:16.621Z,99602.59
2022-12-19T09:24:45.345Z,99595.09
2022-12-19T09:27:14.224Z,99592.45
2022-12-19T09:29:43.935Z,99593.58
2022-12-19T09:32:12.403Z,99590.21
2022-12-19T09:34:40.714Z,99589.34
2022-12-19T09:37:16.856Z,99588.77
2022-12-19T09:39:46.988Z,99589.65
2022-12-19T09:42:21.278Z,99588.13
2022-12-19T09:45:32.173Z,99587.40
2022-12-19T09:48:02.599Z,99591.13
2022-12-19T09:50:42.791Z,99593.70
2022-12-19T09:53:19.013Z,99589.63
2022-12-19T09:55:48.520Z,99589.87
2022-12-19T09:58:37.659Z,99583.04
2022-12-19T10:01:08.232Z,99580.69
2022-12-19T10:03:41.841Z,99576.64
2022-12-19T10:07:14.554Z,99575.87
2022-12-19T10:10:53.672Z,99572.21
2022-12-19T10:13:03.651Z,99562.80
2022-12-19T10:15:47.364Z,99558.27
2022-12-19T10:18:56.748Z,99557.51
2022-12-19T10:25:09.290Z,99549.16
2022-12-19T10:27:59.276Z,99540.27
2022-12-19T10:30:39.542Z,99531.14
2022-12-19T10:33:16.116Z,99533.89
2022-12-19T10:35:54.431Z,99528.18
2022-12-19T10:38:32.496Z,99525.98
2022-12-19T10:41:16.789Z,99520.75
2022-12-19T10:44:02.644Z,99516.08
2022-12-19T10:47:00.386Z,99520.69
2022-12-19T10:49:29.445Z,99516.78
2022-12-19T10:52:04.785Z,99519.44
2022-12-19T10:54:39.464Z,99513.78
2022-12-19T10:57:22.909Z,99503.33
2022-12-19T11:00:04.173Z,99494.70
2022-12-19T11:02:38.576Z,99491.48
2022-12-19T11:05:23.691Z,99493.24
2022-12-19T11:08:07.486Z,99497.45
2022-12-19T11:12:01.204Z,99502.91
2022-12-19T11:17:43.623Z,99507.73
2022-12-19T11:22:13.229Z,99502.31
2022-12-19T11:29:19.606Z,99503.23
2022-12-19T11:30:05.875Z,99506.30
2022-12-19T11:30:25.890Z,99504.09
2022-12-19T11:30:35.712Z,99505.50
2022-12-19T11:34:17.364Z,99508.82
2022-12-19T11:37:07.642Z,99505.41
2022-12-19T11:39:45.230Z,99504.89
2022-12-19T11:42:33.190Z,99505.30
2022-12-19T11:45:17.844Z,99504.20
2022-12-19T11:48:09.578Z,99500.73
2022-12-19T11:51:03.863Z,99501.55
2022-12-19T11:53:57.331Z,99499.08
2022-12-19T11:56:27.926Z,99493.33
2022-12-19T11:59:01.208Z,99488.70
2022-12-19T12:01:44.661Z,99487.80
2022-12-19T12:04:15.701Z,99482.09
2022-12-19T12:06:53.391Z,99478.97
2022-12-19T12:10:55.110Z,99478.92
2022-12-19T12:20:08.929Z,99475.86
2022-12-19T12:30:27.231Z,99476.56
2022-12-19T12:31:08.903Z,99482.27
2022-12-19T12:31:10.656Z,99487.86
2022-12-19T12:31:39.620Z,99486.46
2022-12-19T12:32:00.980Z,99489.77
2022-12-19T12:35:15.510Z,99501.02
2022-12-19T12:35:40.781Z,99506.55
2022-12-19T12:38:14.514Z,99502.17
2022-12-19T12:40:40.854Z,99504.70
2022-12-19T12:43:15.085Z,99490.16
2022-12-19T12:45:45.419Z,99479.91
2022-12-19T12:48:32.819Z,99476.58
2022-12-19T12:51:02.029Z,99472.11
2022-12-19T12:53:35.220Z,99468.06
2022-12-19T12:56:07.205Z,99465.96
2022-12-19T12:58:54.163Z,99470.52
2022-12-19T13:01:29.018Z,99478.89
2022-12-19T13:04:12.365Z,99481.08
2022-12-19T13:07:00.548Z,99474.07
2022-12-19T13:09:31.435Z,99468.19
2022-12-19T13:12:22.250Z,99466.65
2022-12-19T13:14:52.064Z,99465.06
2022-12-19T13:17:45.235Z,99461.59
2022-12-19T13:20:14.429Z,99470.44
2022-12-19T13:22:45.417Z,99469.11
2022-12-19T13:25:42.580Z,99467.86
2022-12-19T13:28:35.882Z,99469.88
2022-12-19T13:31:19.631Z,99469.84
2022-12-19T13:33:56.149Z,99473.20
2022-12-19T13:39:56.269Z,99476.58
2022-12-19T13:40:08.726Z,99475.54
2022-12-19T13:43:30.337Z,99471.63
2022-12-19T13:46:04.009Z,99470.96
2022-12-19T13:48:42.973Z,99465.84
2022-12-19T13:51:13.595Z,99463.86
2022-12-19T13:53:43.422Z,99468.54
2022-12-19T13:56:16.187Z,99469.67
2022-12-19T13:58:55.153Z,99470.23
2022-12-19T14:01:28.734Z,99482.23
2022-12-19T14:04:11.006Z,99486.83
2022-12-19T14:06:43.381Z,99477.36
2022-12-19T14:11:28.094Z,99470.60
2022-12-19T14:13:48.012Z,99470.34
2022-12-19T14:15:40.751Z,99475.09
2022-12-19T14:18:44.952Z,99474.23
2022-12-19T14:22:10.399Z,99471.73
2022-12-19T14:24:17.738Z,99473.39
2022-12-19T14:28:18.146Z,99475.36
2022-12-19T14:30:28.681Z,99475.05
2022-12-19T14:33:46.944Z,99473.58
2022-12-19T14:36:10.853Z,99471.88
2022-12-19T14:39:23.376Z,99474.77
2022-12-19T14:42:01.332Z,99484.91
2022-12-19T14:52:26.128Z,99473.25
2022-12-19T14:52:34.841Z,99479.13
2022-12-19T14:54:37.575Z,99468.16
2022-12-19T14:54:40.479Z,99471.66
2022-12-19T14:56:36.462Z,99473.88
2022-12-19T14:59:35.198Z,99474.27
2022-12-19T15:02:06.473Z,99476.45
2022-12-19T15:04:52.703Z,99474.12
2022-12-19T15:07:28.330Z,99476.73
2022-12-19T15:11:03.120Z,99482.18
2022-12-19T15:14:50.493Z,99482.69
2022-12-19T15:16:31.561Z,99481.30
2022-12-19T15:19:01.419Z,99482.98
2022-12-19T15:21:30.817Z,99485.98
2022-12-19T15:23:59.109Z,99476.48
2022-12-19T15:26:47.041Z,99482.98
2022-12-19T15:29:21.705Z,99484.88
2022-12-19T15:31:50.509Z,99488.87
2022-12-19T15:34:38.015Z,99487.77
2022-12-19T15:37:11.606Z,99480.53
2022-12-19T15:39:40.541Z,99471.93
2022-12-19T15:42:24.959Z,99468.14
2022-12-19T15:44:55.831Z,99465.85
2022-12-19T15:47:37.510Z,99471.44
2022-12-19T15:50:24.275Z,99472.64
2022-12-19T15:52:55.773Z,99463.61
2022-12-19T15:55:27.157Z,99463.67
2022-12-19T15:57:59.188Z,99463.13
2022-12-19T16:00:33.893Z,99460.40
2022-12-19T16:05:50.530Z,99452.62
2022-12-19T16:08:21.869Z,99456.06
2022-12-19T16:11:01.455Z,99445.89
2022-12-19T16:13:36.658Z,99449.92
2022-12-19T16:16:11.087Z,99455.06
2022-12-19T16:18:44.591Z,99445.61
2022-12-19T16:21:27.353Z,99444.17
2022-12-19T16:23:59.666Z,99451.63
2022-12-19T16:26:35.406Z,99452.80
2022-12-19T16:29:04.381Z,99451.55
2022-12-19T16:31:32.998Z,99444.69
2022-12-19T16:34:02.515Z,99449.00
2022-12-19T16:36:30.739Z,99449.95
2022-12-19T16:38:58.698Z,99447.25
2022-12-19T16:41:27.803Z,99446.42
2022-12-19T16:43:55.762Z,99447.66
2022-12-19T16:46:26.128Z,99441.30
2022-12-19T16:48:54.162Z,99440.56
2022-12-19T16:51:27.777Z,99437.83
2022-12-19T16:54:00.479Z,99440.05
2022-12-19T16:56:34.081Z,99441.77
2022-12-19T16:59:08.460Z,99441.30
2022-12-19T17:01:36.751Z,99436.31
2022-12-19T17:04:05.634Z,99439.61
2022-12-19T17:06:33.830Z,99440.86
2022-12-19T17:09:01.988Z,99433.84
2022-12-19T17:11:30.978Z,99432.17
2022-12-19T17:14:06.070Z,99430.05
2022-12-19T17:16:34.731Z,99427.60
2022-12-19T17:19:03.353Z,99416.31
2022-12-19T17:21:31.573Z,99414.13
2022-12-19T17:23:59.649Z,99417.70
2022-12-19T17:26:27.592Z,99430.15
2022-12-19T17:28:55.870Z,99426.58
2022-12-19T17:31:27.632Z,99425.92
2022-12-19T17:33:58.306Z,99427.27
2022-12-19T17:36:36.597Z,99425.60
2022-12-19T17:39:18.987Z,99423.13
2022-12-19T17:41:49.109Z,99422.13
2022-12-19T17:44:18.315Z,99429.42
2022-12-19T17:46:47.549Z,99426.75
2022-12-19T17:49:22.241Z,99428.34
2022-12-19T17:51:52.403Z,99429.14
2022-12-19T17:54:22.131Z,99429.35
2022-12-19T17:56:50.768Z,99434.30
2022-12-19T17:59:19.638Z,99438.59
2022-12-19T18:01:47.900Z,99426.85
2022-12-19T18:04:21.857Z,99416.50
2022-12-19T18:06:50.750Z,99414.52
2022-12-19T18:09:23.804Z,99415.63
2022-12-19T18:11:53.126Z,99411.70
2022-12-19T18:14:21.455Z,99408.54
2022-12-19T18:16:50.820Z,99408.44
2022-12-19T18:19:21.450Z,99408.25
2022-12-19T18:21:49.798Z,99415.42
2022-12-19T18:24:17.779Z,99409.83
2022-12-19T18:26:46.018Z,99408.90
2022-12-19T18:29:14.434Z,99413.04
2022-12-19T18:31:50.117Z,99409.28
2022-12-19T18:34:23.072Z,99409.19
2022-12-19T18:36:52.638Z,99407.73
2022-12-19T18:39:21.063Z,99407.25
2022-12-19T18:41:50.408Z,99408.83
2022-12-19T18:44:18.552Z,99402.55
2022-12-19T18:46:50.383Z,99394.05
2022-12-19T18:49:19.813Z,99392.79
2022-12-19T18:51:48.072Z,99391.23
2022-12-19T18:54:22.027Z,99386.77
2022-12-19T18:56:50.162Z,99380.65
2022-12-19T18:59:18.322Z,99378.40
2022-12-19T19:01:47.418Z,99377.83
2022-12-19T19:04:18.015Z,99377.30
2022-12-19T19:06:51.762Z,99372.77
2022-12-19T19:09:21.295Z,99370.60
2022-12-19T19:12:07.772Z,99376.05
2022-12-19T19:14:35.802Z,99375.57
2022-12-19T19:17:06.556Z,99372.92
2022-12-19T19:19:36.325Z,99373.41
2022-12-19T19:22:04.351Z,99374.42
2022-12-19T19:24:32.416Z,99374.86
2022-12-19T19:27:00.496Z,99373.05
2022-12-19T19:29:28.513Z,99373.38
2022-12-19T19:31:56.629Z,99372.95
2022-12-19T19:34:31.611Z,99365.75
2022-12-19T19:37:03.742Z,99355.79
2022-12-19T19:39:34.312Z,99354.51
2022-12-19T19:42:02.569Z,99353.05
2022-12-19T19:44:31.024Z,99348.08
2022-12-19T19:46:59.106Z,99350.42
2022-12-19T19:49:27.300Z,99353.30
2022-12-19T19:52:00.501Z,99350.53
2022-12-19T19:54:31.447Z,99346.09
2022-12-19T19:56:59.441Z,99346.02
2022-12-19T19:59:31.477Z,99341.04
2022-12-19T20:02:00.046Z,99335.21
2022-12-19T20:04:28.621Z,99331.27
2022-12-19T20:06:56.663Z,99334.88
2022-12-19T20:09:24.817Z,99337.86
2022-12-19T20:11:52.985Z,99345.38
2022-12-19T20:14:21.182Z,99350.39
2022-12-19T20:16:49.668Z,99345.18
2022-12-19T20:19:17.769Z,99341.96
2022-12-19T20:21:46.179Z,99341.98
2022-12-19T20:24:14.051Z,99347.30
2022-12-19T20:26:42.946Z,99344.69
2022-12-19T20:29:11.850Z,99339.61
2022-12-19T20:31:41.794Z,99335.50
2022-12-19T20:34:10.435Z,99331.79
2022-12-19T20:36:39.014Z,99331.51
2022-12-19T20:39:07.006Z,99328.63
2022-12-19T20:41:35.505Z,99329.80
2022-12-19T20:44:03.871Z,99330.09
2022-12-19T20:46:32.301Z,99331.08
2022-12-19T20:49:01.535Z,99333.23
2022-12-19T20:51:29.642Z,99332.25
2022-12-19T20:53:57.886Z,99329.27
2022-12-19T20:56:26.206Z,99324.89
2022-12-19T20:58:54.649Z,99322.41
2022-12-19T21:01:25.013Z,99321.77
2022-12-19T21:03:53.637Z,99319.67
2022-12-19T21:06:25.529Z,99319.71
2022-12-19T21:08:55.534Z,99323.59
2022-12-19T21:11:25.017Z,99326.73
2022-12-19T21:13:53.453Z,99328.64
2022-12-19T21:16:23.159Z,99335.05
2022-12-19T21:18:51.553Z,99334.60
2022-12-19T21:21:23.243Z,99336.85
2022-12-19T21:23:52.573Z,99337.91
2022-12-19T21:26:22.892Z,99335.42
2022-12-19T21:28:51.164Z,99335.84
2022-12-19T21:31:25.432Z,99332.63
2022-12-19T21:33:55.795Z,99327.85
2022-12-19T21:36:25.758Z,99323.98
2022-12-19T21:38:56.507Z,99320.52
2022-12-19T21:41:25.962Z,99321.16
2022-12-19T21:43:55.665Z,99321.81
2022-12-19T21:46:26.542Z,99328.92
2022-12-19T21:48:56.086Z,99326.55
2022-12-19T21:51:27.784Z,99326.19
2022-12-19T21:54:07.165Z,99330.97
2022-12-19T21:56:39.022Z,99333.67
2022-12-19T21:59:11.452Z,99330.59
2022-12-19T22:01:41.684Z,99327.55
2022-12-19T22:04:13.441Z,99324.15
2022-12-19T22:06:42.018Z,99327.14
2022-12-19T22:09:13.480Z,99324.40
2022-12-19T22:11:42.460Z,99322.83
2022-12-19T22:14:15.663Z,99321.14
2022-12-19T22:16:44.200Z,99316.96
2022-12-19T22:19:15.001Z,99312.19
2022-12-19T22:21:44.552Z,99308.23
2022-12-19T22:24:14.908Z,99305.41
2022-12-19T22:26:44.121Z,99300.39
2022-12-19T22:29:16.560Z,99297.30
2022-12-19T22:31:45.928Z,99298.58
2022-12-19T22:34:17.197Z,99296.64
2022-12-19T22:36:46.123Z,99287.18
2022-12-19T22:39:17.856Z,99276.13
2022-12-19T22:41:47.012Z,99274.38
2022-12-19T22:44:21.048Z,99268.52
2022-12-19T22:46:50.194Z,99264.55
2022-12-19T22:49:18.338Z,99263.56
2022-12-19T22:51:46.436Z,99264.05
2022-12-19T22:54:14.716Z,99257.42
2022-12-19T22:56:42.831Z,99251.77
2022-12-19T22:59:12.640Z,99253.20
2022-12-19T23:01:43.341Z,99251.31
2022-12-19T23:04:14.996Z,99251.02
2022-12-19T23:06:44.381Z,99254.10
2022-12-19T23:09:13.792Z,99253.30
2022-12-19T23:11:44.200Z,99256.99
2022-12-19T23:14:15.512Z,99255.00
2022-12-19T23:16:44.275Z,99252.43
2022-12-19T23:19:14.503Z,99248.11
2022-12-19T23:21:42.647Z,99239.33
2022-12-19T23:24:11.897Z,99236.41
2022-12-19T23:26:41.084Z,99233.71
2022-12-19T23:29:11.923Z,99235.15
2022-12-19T23:31:42.642Z,99234.77
2022-12-19T23:34:11.402Z,99227.53
2022-12-19T23:39:27.937Z,99221.23
2022-12-19T23:41:55.952Z,99216.57
2022-12-19T23:44:24.407Z,99213.36
2022-12-19T23:46:53.227Z,99214.95
2022-12-19T23:49:24.008Z,99212.30
2022-12-19T23:51:51.967Z,99205.28
2022-12-19T23:54:20.048Z,99206.52
2022-12-19T23:56:49.650Z,99208.49
2022-12-19T23:59:17.621Z,99211.35
